Weather at Tandragee Airstrip

Public forecast

Using degrees Celsius for public forecast. Weather courtesy of forecast.io.

Closest aviation weather report (METAR) to Tandragee Airstrip

Closest report is Belfast International Airport, 17.5 nm (32.4 km) NNE. Retrieved 2022/06/28 23:50 UTC (11 minutes ago):

EGAA 282350Z AUTO 17006KT 9999 FEW036 13/12 Q1005

Closest aviation forecast (TAF) to Tandragee Airstrip

Closest forecast is Belfast International Airport, 17.5 nm (32.4 km) NNE. Retrieved 2022-06-29 00:00 UTC (1 minute ago):

TAF EGAA 282253Z 2900/2924 17009KT 9999 FEW015 SCT030 PROB30 TEMPO 2900/2911 6000 RA TEMPO 2906/2911 BKN014 TEMPO 2911/2919 7000 SHRA